Time;durP1;ratioP1;P1;durP2;ratioP2;P2;SDS_P1;SDS_P2;PMS_P1;PMS_P2;Temp;Humidity;BMP_temperature;BMP_pressure;BME280_temperature;BME280_humidity;BME280_pressure;Samples;Min_cycle;Max_cycle;Signal;HPM_P1;HPM_P2
2023/07/15 00:01:32;;;;;;;6.55;2.08;;;;;;;;;;4908977;29;20111;-65
2023/07/15 00:03:58;;;;;;;6.20;2.00;;;;;;;;;;4889622;29;20027;-65
2023/07/15 00:06:25;;;;;;;6.43;1.73;;;;;;;;;;4913872;29;20076;-66
2023/07/15 00:08:52;;;;;;;4.88;1.73;;;;;;;;;;4911289;29;20031;-66
2023/07/15 00:11:21;;;;;;;6.97;1.98;;;;;;;;;;4917403;29;20111;-63
2023/07/15 00:13:47;;;;;;;7.85;1.88;;;;;;;;;;4909030;29;20118;-64
2023/07/15 00:16:13;;;;;;;8.00;1.90;;;;;;;;;;4895835;29;20031;-64
2023/07/15 00:18:40;;;;;;;5.10;1.92;;;;;;;;;;4906845;29;20055;-64
2023/07/15 00:21:15;;;;;;;5.93;1.90;;;;;;;;;;4907576;29;20042;-64
2023/07/15 00:23:42;;;;;;;5.40;1.80;;;;;;;;;;4907546;29;20553;-64
2023/07/15 00:26:08;;;;;;;7.72;2.53;;;;;;;;;;4912630;29;20118;-64
2023/07/15 00:28:36;;;;;;;6.93;1.90;;;;;;;;;;4910184;29;20038;-64
2023/07/15 00:31:02;;;;;;;10.13;2.10;;;;;;;;;;4906228;29;20035;-64
2023/07/15 00:33:28;;;;;;;6.80;1.85;;;;;;;;;;4909159;29;20024;-64
2023/07/15 00:35:54;;;;;;;8.77;2.05;;;;;;;;;;4907143;29;20031;-64
2023/07/15 00:38:20;;;;;;;6.65;1.58;;;;;;;;;;4911609;29;20066;-64
2023/07/15 00:40:47;;;;;;;5.43;1.67;;;;;;;;;;4904606;29;20538;-64
2023/07/15 00:43:32;;;;;;;9.15;1.83;;;;;;;;;;4906459;29;20080;-64
2023/07/15 00:46:28;;;;;;;7.82;2.25;;;;;;;;;;4884296;29;20039;-64
2023/07/15 00:49:02;;;;;;;4.90;1.63;;;;;;;;;;4826812;29;20106;-64
2023/07/15 00:51:29;;;;;;;7.35;1.90;;;;;;;;;;4835508;29;20093;-64
2023/07/15 00:53:56;;;;;;;6.80;2.38;;;;;;;;;;4833803;29;20067;-64
2023/07/15 00:56:22;;;;;;;8.32;2.10;;;;;;;;;;4837406;29;20843;-64
2023/07/15 00:58:48;;;;;;;6.47;2.22;;;;;;;;;;4830235;29;20115;-64
2023/07/15 01:01:15;;;;;;;6.20;2.38;;;;;;;;;;4838027;29;20106;-64
2023/07/15 01:03:43;;;;;;;5.40;2.08;;;;;;;;;;4835662;29;20042;-64
2023/07/15 01:06:10;;;;;;;6.30;2.25;;;;;;;;;;4832620;29;20041;-64
2023/07/15 01:08:36;;;;;;;7.35;2.50;;;;;;;;;;4833142;29;20041;-64
2023/07/15 01:11:02;;;;;;;8.32;2.58;;;;;;;;;;4816701;29;22131;-64
2023/07/15 01:13:28;;;;;;;5.43;2.38;;;;;;;;;;4834666;29;20466;-64
2023/07/15 01:15:54;;;;;;;6.68;2.20;;;;;;;;;;4818077;29;20033;-64
2023/07/15 01:18:21;;;;;;;7.13;2.47;;;;;;;;;;4832417;29;20037;-64
2023/07/15 01:20:47;;;;;;;6.03;2.17;;;;;;;;;;4814979;29;20038;-64
2023/07/15 01:23:13;;;;;;;6.65;2.10;;;;;;;;;;4836917;29;20822;-64
2023/07/15 01:25:39;;;;;;;5.43;1.65;;;;;;;;;;4882816;29;20071;-64
2023/07/15 01:28:06;;;;;;;6.70;2.08;;;;;;;;;;4906700;29;20035;-63
2023/07/15 01:30:32;;;;;;;6.45;2.33;;;;;;;;;;4914945;29;20043;-64
2023/07/15 01:32:58;;;;;;;6.65;1.90;;;;;;;;;;4907765;29;20758;-64
2023/07/15 01:35:24;;;;;;;7.50;2.45;;;;;;;;;;4909862;29;20035;-64
2023/07/15 01:37:50;;;;;;;8.63;2.38;;;;;;;;;;4914404;29;20036;-66
2023/07/15 01:40:17;;;;;;;6.50;2.17;;;;;;;;;;4911294;29;20044;-64
2023/07/15 01:42:43;;;;;;;6.93;2.35;;;;;;;;;;4909669;29;20747;-65
2023/07/15 01:45:09;;;;;;;5.50;1.98;;;;;;;;;;4892310;29;20387;-63
2023/07/15 01:47:36;;;;;;;6.32;1.90;;;;;;;;;;4909883;29;20039;-64
2023/07/15 01:50:05;;;;;;;5.55;2.00;;;;;;;;;;4920381;28;20051;-64
2023/07/15 01:52:31;;;;;;;6.28;1.80;;;;;;;;;;4904723;28;20045;-64
2023/07/15 01:54:57;;;;;;;6.68;2.15;;;;;;;;;;4923291;28;20349;-63
2023/07/15 01:57:26;;;;;;;10.63;2.55;;;;;;;;;;4896135;28;20027;-64
2023/07/15 01:59:57;;;;;;;6.43;2.38;;;;;;;;;;4921744;28;20098;-64
2023/07/15 02:02:24;;;;;;;7.22;2.75;;;;;;;;;;4926057;28;20557;-64
2023/07/15 02:04:50;;;;;;;6.95;2.88;;;;;;;;;;4920991;28;20816;-65
2023/07/15 02:07:16;;;;;;;6.93;2.60;;;;;;;;;;4905749;28;20242;-65
2023/07/15 02:09:43;;;;;;;7.35;2.60;;;;;;;;;;4916113;28;20031;-65
2023/07/15 02:12:10;;;;;;;6.70;2.20;;;;;;;;;;4925032;28;20039;-65
2023/07/15 02:14:39;;;;;;;6.50;2.42;;;;;;;;;;4924248;28;20879;-66
2023/07/15 02:17:06;;;;;;;6.50;2.30;;;;;;;;;;4902343;28;20035;-65
2023/07/15 02:19:32;;;;;;;7.18;2.53;;;;;;;;;;4925268;28;20463;-65
2023/07/15 02:21:58;;;;;;;7.28;2.72;;;;;;;;;;4919732;28;20041;-65
2023/07/15 02:24:24;;;;;;;8.10;2.22;;;;;;;;;;4924799;28;20170;-65
2023/07/15 02:26:50;;;;;;;7.97;2.30;;;;;;;;;;4918968;28;20038;-65
2023/07/15 02:29:17;;;;;;;6.68;2.17;;;;;;;;;;4924351;28;20057;-64
2023/07/15 02:31:43;;;;;;;4.78;1.83;;;;;;;;;;4923558;28;20035;-64
2023/07/15 02:34:09;;;;;;;7.53;1.75;;;;;;;;;;4923777;28;20031;-65
2023/07/15 02:36:35;;;;;;;6.78;2.22;;;;;;;;;;4903120;28;20257;-65
2023/07/15 02:39:03;;;;;;;6.97;2.38;;;;;;;;;;4893283;29;20035;-63
2023/07/15 02:41:31;;;;;;;7.35;2.03;;;;;;;;;;4915652;28;20647;-66
2023/07/15 02:43:57;;;;;;;6.88;1.80;;;;;;;;;;4898355;28;20032;-63
2023/07/15 02:46:24;;;;;;;6.97;1.80;;;;;;;;;;4908415;28;20579;-63
2023/07/15 02:48:50;;;;;;;6.68;2.03;;;;;;;;;;4920800;28;20138;-64
2023/07/15 02:51:16;;;;;;;5.97;1.80;;;;;;;;;;4903485;28;20035;-64
2023/07/15 02:53:46;;;;;;;6.18;1.95;;;;;;;;;;4909950;28;20031;-64
2023/07/15 02:56:12;;;;;;;7.22;2.00;;;;;;;;;;4926426;28;20095;-62
2023/07/15 02:58:40;;;;;;;9.93;2.33;;;;;;;;;;4925235;28;20287;-62
2023/07/15 03:01:08;;;;;;;11.60;2.30;;;;;;;;;;4922801;28;20036;-65
2023/07/15 03:03:36;;;;;;;6.95;2.08;;;;;;;;;;4921334;28;20039;-64
2023/07/15 03:06:02;;;;;;;4.80;1.77;;;;;;;;;;4920798;28;20046;-66
2023/07/15 03:08:29;;;;;;;5.30;2.10;;;;;;;;;;4907756;28;20046;-63
2023/07/15 03:10:55;;;;;;;5.05;2.10;;;;;;;;;;4921045;28;20069;-64
2023/07/15 03:13:21;;;;;;;6.72;2.13;;;;;;;;;;4902840;28;20095;-64
2023/07/15 03:15:48;;;;;;;5.85;1.73;;;;;;;;;;4928202;28;20291;-64
2023/07/15 03:18:14;;;;;;;5.65;1.90;;;;;;;;;;4920695;28;20012;-64
2023/07/15 03:20:40;;;;;;;5.05;1.88;;;;;;;;;;4922432;28;20534;-64
2023/07/15 03:23:06;;;;;;;7.68;2.05;;;;;;;;;;4921394;28;20082;-64
2023/07/15 03:25:33;;;;;;;5.97;2.10;;;;;;;;;;4922839;28;20533;-64
2023/07/15 03:27:59;;;;;;;5.30;1.77;;;;;;;;;;4903431;28;20046;-64
2023/07/15 03:30:26;;;;;;;5.15;1.83;;;;;;;;;;4923489;28;20062;-62
2023/07/15 03:32:56;;;;;;;6.50;2.22;;;;;;;;;;4901408;28;20386;-64
2023/07/15 03:35:22;;;;;;;8.73;2.25;;;;;;;;;;4922698;28;20032;-63
2023/07/15 03:37:49;;;;;;;6.60;1.70;;;;;;;;;;4921160;28;20055;-63
2023/07/15 03:40:16;;;;;;;7.40;1.60;;;;;;;;;;4905643;28;20059;-63
2023/07/15 03:42:43;;;;;;;5.10;1.55;;;;;;;;;;4922152;28;20034;-63
2023/07/15 03:45:09;;;;;;;5.68;1.95;;;;;;;;;;4905698;28;20041;-64
2023/07/15 03:47:36;;;;;;;6.63;2.13;;;;;;;;;;4921379;28;20763;-64
2023/07/15 03:50:06;;;;;;;5.13;1.77;;;;;;;;;;4919308;28;20055;-63
2023/07/15 03:52:32;;;;;;;6.15;1.90;;;;;;;;;;4917203;28;20062;-63
2023/07/15 03:54:59;;;;;;;6.00;2.03;;;;;;;;;;4905826;28;20604;-63
2023/07/15 03:57:25;;;;;;;6.63;1.88;;;;;;;;;;4903542;28;20106;-64
2023/07/15 03:59:52;;;;;;;6.68;2.25;;;;;;;;;;4903660;28;20038;-63
2023/07/15 04:02:18;;;;;;;6.85;2.22;;;;;;;;;;4902707;28;20023;-63
2023/07/15 04:04:44;;;;;;;5.85;1.95;;;;;;;;;;4903371;28;20489;-63
2023/07/15 04:07:10;;;;;;;5.43;2.10;;;;;;;;;;4921679;28;20036;-63
2023/07/15 04:09:37;;;;;;;7.00;2.25;;;;;;;;;;4904848;28;20035;-63
2023/07/15 04:12:03;;;;;;;7.22;2.35;;;;;;;;;;4918924;28;20731;-64
2023/07/15 04:14:30;;;;;;;7.45;1.88;;;;;;;;;;4906772;28;20603;-63
2023/07/15 04:16:56;;;;;;;6.13;1.90;;;;;;;;;;4921859;28;20093;-63
2023/07/15 04:19:22;;;;;;;6.10;2.03;;;;;;;;;;4919951;28;20438;-63
2023/07/15 04:21:48;;;;;;;5.07;1.77;;;;;;;;;;4900859;28;20648;-62
2023/07/15 04:24:14;;;;;;;5.28;1.80;;;;;;;;;;4922606;28;20599;-65
2023/07/15 04:26:40;;;;;;;5.85;1.80;;;;;;;;;;4924465;28;20036;-63
2023/07/15 04:29:07;;;;;;;8.38;2.05;;;;;;;;;;4905193;28;20039;-63
2023/07/15 04:31:33;;;;;;;6.63;1.75;;;;;;;;;;4925945;28;20442;-63
2023/07/15 04:33:59;;;;;;;7.30;2.00;;;;;;;;;;4921891;28;21073;-65
2023/07/15 04:36:25;;;;;;;8.73;2.08;;;;;;;;;;4921985;28;20363;-63
2023/07/15 04:38:52;;;;;;;6.68;1.70;;;;;;;;;;4921941;28;20118;-63
2023/07/15 04:41:18;;;;;;;9.50;2.20;;;;;;;;;;4925577;28;20419;-63
2023/07/15 04:43:44;;;;;;;6.53;1.98;;;;;;;;;;4921053;28;20046;-63
2023/07/15 04:46:11;;;;;;;7.93;1.67;;;;;;;;;;4927916;28;20304;-62
2023/07/15 04:48:37;;;;;;;5.40;1.90;;;;;;;;;;4927197;28;20051;-63
2023/07/15 04:51:03;;;;;;;5.63;1.67;;;;;;;;;;4921545;28;20543;-64
2023/07/15 04:53:30;;;;;;;3.95;1.40;;;;;;;;;;4928675;28;20369;-63
2023/07/15 04:55:56;;;;;;;5.55;1.90;;;;;;;;;;4928900;28;20094;-63
2023/07/15 04:58:22;;;;;;;5.03;1.60;;;;;;;;;;4909516;29;20035;-63
2023/07/15 05:00:48;;;;;;;6.22;1.77;;;;;;;;;;4922988;28;20038;-63
2023/07/15 05:03:14;;;;;;;5.75;1.77;;;;;;;;;;4912184;28;20476;-63
2023/07/15 05:05:41;;;;;;;5.53;1.60;;;;;;;;;;4907887;29;20418;-63
2023/07/15 05:08:12;;;;;;;5.85;1.50;;;;;;;;;;4905890;28;20089;-63
2023/07/15 05:10:38;;;;;;;5.00;1.45;;;;;;;;;;4925929;28;20343;-63
2023/07/15 05:13:05;;;;;;;5.70;1.77;;;;;;;;;;4922702;28;20049;-63
2023/07/15 05:15:32;;;;;;;4.40;1.50;;;;;;;;;;4924629;28;20465;-64
2023/07/15 05:17:58;;;;;;;5.82;1.63;;;;;;;;;;4907442;28;20643;-65
2023/07/15 05:20:24;;;;;;;5.80;1.75;;;;;;;;;;4925985;28;20032;-63
2023/07/15 05:22:51;;;;;;;6.47;2.08;;;;;;;;;;4908167;28;20472;-63
2023/07/15 05:25:17;;;;;;;6.10;1.77;;;;;;;;;;4924441;28;20038;-63
2023/07/15 05:27:44;;;;;;;9.40;2.20;;;;;;;;;;4906253;28;20043;-63
2023/07/15 05:30:10;;;;;;;7.28;2.10;;;;;;;;;;4927640;28;20043;-63
2023/07/15 05:32:37;;;;;;;5.63;1.52;;;;;;;;;;4924330;28;20301;-63
2023/07/15 05:35:03;;;;;;;5.93;1.70;;;;;;;;;;4923342;28;20730;-63
2023/07/15 05:37:29;;;;;;;4.70;1.27;;;;;;;;;;4925159;28;20358;-63
2023/07/15 05:39:55;;;;;;;8.88;2.13;;;;;;;;;;4905928;28;20465;-63
2023/07/15 05:42:22;;;;;;;7.47;1.70;;;;;;;;;;4928324;28;20382;-63
2023/07/15 05:44:48;;;;;;;6.93;1.80;;;;;;;;;;4923556;28;20087;-63
2023/07/15 05:47:14;;;;;;;6.25;1.50;;;;;;;;;;4927867;28;20042;-64
2023/07/15 05:49:40;;;;;;;5.97;1.40;;;;;;;;;;4910029;28;20687;-63
2023/07/15 05:52:07;;;;;;;6.45;1.40;;;;;;;;;;4921482;28;20038;-63
2023/07/15 05:54:33;;;;;;;8.95;1.90;;;;;;;;;;4922318;28;20580;-63
2023/07/15 05:56:59;;;;;;;6.82;1.60;;;;;;;;;;4920356;28;20338;-64
2023/07/15 05:59:25;;;;;;;10.02;1.75;;;;;;;;;;4925436;28;20365;-64
2023/07/15 06:01:51;;;;;;;6.90;1.35;;;;;;;;;;4920851;28;20076;-63
2023/07/15 06:04:17;;;;;;;6.20;1.48;;;;;;;;;;4923738;28;20035;-64
2023/07/15 06:06:44;;;;;;;7.45;1.90;;;;;;;;;;4904543;28;20533;-64
2023/07/15 06:09:11;;;;;;;7.40;1.88;;;;;;;;;;4905253;28;20467;-64
2023/07/15 06:11:37;;;;;;;8.98;2.53;;;;;;;;;;4927469;28;20095;-64
2023/07/15 06:14:04;;;;;;;8.65;2.20;;;;;;;;;;4924437;28;20042;-64
2023/07/15 06:16:31;;;;;;;7.15;2.15;;;;;;;;;;4931206;28;20031;-63
2023/07/15 06:18:57;;;;;;;6.45;1.90;;;;;;;;;;4924881;28;20384;-63
2023/07/15 06:21:30;;;;;;;5.93;1.70;;;;;;;;;;4927946;28;20187;-64
2023/07/15 06:23:56;;;;;;;6.00;1.70;;;;;;;;;;4913456;28;20050;-63
2023/07/15 06:26:22;;;;;;;6.20;1.70;;;;;;;;;;4921557;28;20043;-65
2023/07/15 06:28:48;;;;;;;9.00;1.77;;;;;;;;;;4918056;28;20137;-66
2023/07/15 06:31:14;;;;;;;7.88;1.70;;;;;;;;;;4921623;28;20031;-65
2023/07/15 06:33:41;;;;;;;6.80;1.60;;;;;;;;;;4922931;28;20449;-65
2023/07/15 06:36:07;;;;;;;7.50;1.65;;;;;;;;;;4921031;28;20054;-65
2023/07/15 06:38:33;;;;;;;9.70;1.60;;;;;;;;;;4920828;28;20023;-65
2023/07/15 06:41:00;;;;;;;6.15;1.50;;;;;;;;;;4916801;28;20621;-64
2023/07/15 06:43:26;;;;;;;7.13;2.13;;;;;;;;;;4925796;28;20023;-65
2023/07/15 06:45:52;;;;;;;9.35;2.58;;;;;;;;;;4921515;28;20103;-65
2023/07/15 06:48:18;;;;;;;8.10;2.20;;;;;;;;;;4923867;28;20106;-65
2023/07/15 06:50:45;;;;;;;9.35;3.05;;;;;;;;;;4921347;28;20049;-65
2023/07/15 06:53:11;;;;;;;10.52;4.28;;;;;;;;;;4925456;28;20055;-65
2023/07/15 06:55:37;;;;;;;9.70;4.00;;;;;;;;;;4921927;28;20042;-66
2023/07/15 06:58:03;;;;;;;9.30;3.47;;;;;;;;;;4917321;28;20635;-65
2023/07/15 07:00:30;;;;;;;13.15;3.35;;;;;;;;;;4903786;28;20414;-65
2023/07/15 07:02:58;;;;;;;9.63;3.20;;;;;;;;;;4918845;28;20043;-63
2023/07/15 07:05:26;;;;;;;9.40;2.60;;;;;;;;;;4919316;28;20377;-64
2023/07/15 07:07:52;;;;;;;8.70;2.92;;;;;;;;;;4901132;28;20112;-64
2023/07/15 07:10:18;;;;;;;9.68;3.08;;;;;;;;;;4904966;28;20062;-64
2023/07/15 07:12:46;;;;;;;8.95;2.53;;;;;;;;;;4919955;28;20027;-63
2023/07/15 07:15:12;;;;;;;10.50;2.83;;;;;;;;;;4920677;28;20119;-64
2023/07/15 07:17:38;;;;;;;8.95;2.20;;;;;;;;;;4919999;28;20031;-64
2023/07/15 07:20:05;;;;;;;6.90;2.13;;;;;;;;;;4904020;28;20035;-64
2023/07/15 07:22:31;;;;;;;7.43;1.63;;;;;;;;;;4919496;28;20027;-64
2023/07/15 07:24:58;;;;;;;6.22;1.65;;;;;;;;;;4895667;28;20072;-64
2023/07/15 07:27:25;;;;;;;15.80;1.83;;;;;;;;;;4922102;28;20114;-63
2023/07/15 07:29:52;;;;;;;9.73;1.75;;;;;;;;;;4917651;28;20482;-65
2023/07/15 07:32:18;;;;;;;7.63;1.50;;;;;;;;;;4906154;28;20031;-64
2023/07/15 07:34:45;;;;;;;12.27;2.17;;;;;;;;;;4918217;28;20058;-64
2023/07/15 07:37:11;;;;;;;17.27;2.10;;;;;;;;;;4905310;28;20023;-65
2023/07/15 07:39:37;;;;;;;8.95;1.85;;;;;;;;;;4925117;28;20470;-64
2023/07/15 07:42:04;;;;;;;8.80;1.65;;;;;;;;;;4900887;28;20032;-64
2023/07/15 07:44:30;;;;;;;9.32;1.80;;;;;;;;;;4903831;28;20022;-63
2023/07/15 07:46:57;;;;;;;6.65;1.40;;;;;;;;;;4922024;28;20032;-64
2023/07/15 07:49:23;;;;;;;6.15;1.40;;;;;;;;;;4917241;28;20170;-66
2023/07/15 07:51:49;;;;;;;7.75;1.30;;;;;;;;;;4902671;28;20391;-66
2023/07/15 07:54:15;;;;;;;7.53;1.33;;;;;;;;;;4923582;28;20042;-64
2023/07/15 07:56:42;;;;;;;5.53;1.50;;;;;;;;;;4921651;28;20374;-66
2023/07/15 07:59:08;;;;;;;4.97;1.15;;;;;;;;;;4904812;29;20058;-63
2023/07/15 08:01:34;;;;;;;5.00;1.17;;;;;;;;;;4904244;28;20015;-64
2023/07/15 08:04:01;;;;;;;14.10;1.45;;;;;;;;;;4905291;28;20050;-65
2023/07/15 08:06:28;;;;;;;5.00;1.30;;;;;;;;;;4921931;28;20106;-65
2023/07/15 08:08:54;;;;;;;5.05;1.20;;;;;;;;;;4916030;28;20050;-64
2023/07/15 08:11:20;;;;;;;6.18;1.17;;;;;;;;;;4923516;28;20035;-64
2023/07/15 08:13:47;;;;;;;5.63;1.23;;;;;;;;;;4918500;28;20067;-64
2023/07/15 08:16:28;;;;;;;9.25;1.00;;;;;;;;;;4924533;28;20027;-64
2023/07/15 08:18:54;;;;;;;5.30;1.20;;;;;;;;;;4902352;28;20027;-63
2023/07/15 08:21:20;;;;;;;3.45;0.98;;;;;;;;;;4922169;28;20032;-64
2023/07/15 08:23:47;;;;;;;5.32;1.08;;;;;;;;;;4924827;28;20042;-64
2023/07/15 08:26:13;;;;;;;5.78;1.75;;;;;;;;;;4907875;28;20043;-65
2023/07/15 08:28:39;;;;;;;6.03;1.08;;;;;;;;;;4907585;28;20349;-64
2023/07/15 08:31:05;;;;;;;3.63;1.05;;;;;;;;;;4907939;28;20051;-65
2023/07/15 08:33:31;;;;;;;6.97;1.15;;;;;;;;;;4929628;28;20031;-64
2023/07/15 08:36:00;;;;;;;8.63;1.33;;;;;;;;;;4926688;28;20034;-64
2023/07/15 08:38:27;;;;;;;6.20;1.17;;;;;;;;;;4927752;28;20027;-64
2023/07/15 08:40:58;;;;;;;3.03;0.80;;;;;;;;;;4923137;28;20293;-64
2023/07/15 08:43:24;;;;;;;6.63;1.23;;;;;;;;;;4929656;28;20039;-65
2023/07/15 08:45:51;;;;;;;9.18;1.42;;;;;;;;;;4908450;28;20035;-63
2023/07/15 08:48:17;;;;;;;6.15;1.10;;;;;;;;;;4927583;28;20062;-63
2023/07/15 08:50:45;;;;;;;6.43;1.40;;;;;;;;;;4925984;28;21203;-63
2023/07/15 08:53:14;;;;;;;7.30;1.30;;;;;;;;;;4926956;28;20090;-64
2023/07/15 08:55:41;;;;;;;8.43;1.67;;;;;;;;;;4927651;28;20360;-64
2023/07/15 08:58:08;;;;;;;6.88;1.48;;;;;;;;;;4926789;28;20498;-64
2023/07/15 09:00:34;;;;;;;8.93;1.73;;;;;;;;;;4928337;28;20027;-64
2023/07/15 09:03:01;;;;;;;8.50;1.70;;;;;;;;;;4925183;28;20026;-64
2023/07/15 09:05:27;;;;;;;8.68;1.52;;;;;;;;;;4928147;28;20569;-64
2023/07/15 09:07:57;;;;;;;9.13;1.90;;;;;;;;;;4905626;28;20031;-65
2023/07/15 09:10:24;;;;;;;7.57;1.75;;;;;;;;;;4926033;28;20128;-65
2023/07/15 09:12:54;;;;;;;9.00;1.98;;;;;;;;;;4927049;28;20035;-64
2023/07/15 09:15:20;;;;;;;9.20;1.65;;;;;;;;;;4927547;28;20110;-64
2023/07/15 09:17:59;;;;;;;10.80;2.20;;;;;;;;;;4924429;28;20028;-64
2023/07/15 09:20:26;;;;;;;10.85;2.22;;;;;;;;;;4931286;28;20028;-64
2023/07/15 09:22:57;;;;;;;10.25;2.15;;;;;;;;;;4924044;28;20474;-66
2023/07/15 09:25:23;;;;;;;10.45;2.35;;;;;;;;;;4907888;28;20166;-64
2023/07/15 09:27:50;;;;;;;10.80;1.85;;;;;;;;;;4925330;28;20019;-64
2023/07/15 09:30:16;;;;;;;9.18;1.80;;;;;;;;;;4928150;28;20304;-64
2023/07/15 09:32:43;;;;;;;10.82;2.20;;;;;;;;;;4927814;28;20596;-64
2023/07/15 09:35:09;;;;;;;8.88;1.83;;;;;;;;;;4912302;28;20496;-65
2023/07/15 09:37:36;;;;;;;6.82;1.88;;;;;;;;;;4925616;28;20030;-65
2023/07/15 09:40:05;;;;;;;10.00;1.85;;;;;;;;;;4922545;28;20031;-65
2023/07/15 09:42:31;;;;;;;10.85;2.20;;;;;;;;;;4911088;28;20035;-64
2023/07/15 09:44:57;;;;;;;11.13;2.05;;;;;;;;;;4926099;28;20031;-64
2023/07/15 09:47:27;;;;;;;12.70;2.05;;;;;;;;;;4927061;28;20390;-64
2023/07/15 09:49:54;;;;;;;14.50;2.53;;;;;;;;;;4904989;28;20578;-65
2023/07/15 09:52:20;;;;;;;13.07;2.22;;;;;;;;;;4926283;28;20050;-65
2023/07/15 09:54:46;;;;;;;13.60;2.65;;;;;;;;;;4925048;28;20452;-64
2023/07/15 09:57:14;;;;;;;11.10;2.70;;;;;;;;;;4927853;28;20509;-64
2023/07/15 09:59:46;;;;;;;14.55;2.42;;;;;;;;;;4910701;28;20126;-64
2023/07/15 10:02:31;;;;;;;11.48;2.28;;;;;;;;;;4928320;28;20027;-64
2023/07/15 10:05:05;;;;;;;10.77;2.15;;;;;;;;;;4924167;28;20058;-64
2023/07/15 10:07:33;;;;;;;8.65;2.40;;;;;;;;;;4928847;28;20031;-65
2023/07/15 10:09:59;;;;;;;9.77;2.13;;;;;;;;;;4906016;28;20035;-64
2023/07/15 10:12:28;;;;;;;9.27;2.22;;;;;;;;;;4928413;28;20259;-64
2023/07/15 10:14:55;;;;;;;9.70;1.90;;;;;;;;;;4924080;28;20063;-65
2023/07/15 10:17:21;;;;;;;12.07;2.58;;;;;;;;;;4927288;28;20046;-65
2023/07/15 10:19:48;;;;;;;9.90;2.40;;;;;;;;;;4922819;28;20032;-64
2023/07/15 10:22:18;;;;;;;11.90;2.53;;;;;;;;;;4925873;28;20043;-64
2023/07/15 10:24:52;;;;;;;9.38;2.20;;;;;;;;;;4921532;28;20058;-64
2023/07/15 10:27:18;;;;;;;12.17;2.33;;;;;;;;;;4925360;28;20027;-63
2023/07/15 10:29:44;;;;;;;12.63;2.33;;;;;;;;;;4922456;28;20126;-66
2023/07/15 10:32:19;;;;;;;13.60;2.72;;;;;;;;;;4923507;28;20031;-63
2023/07/15 10:34:49;;;;;;;11.60;2.70;;;;;;;;;;4920961;28;20293;-64
2023/07/15 10:37:17;;;;;;;13.57;2.70;;;;;;;;;;4923804;28;20027;-66
2023/07/15 10:39:43;;;;;;;12.43;2.40;;;;;;;;;;4921887;28;20473;-64
2023/07/15 10:42:14;;;;;;;13.25;2.15;;;;;;;;;;4908431;28;20035;-64
2023/07/15 10:44:45;;;;;;;11.65;2.63;;;;;;;;;;4909583;29;20097;-66
2023/07/15 10:47:14;;;;;;;13.45;2.88;;;;;;;;;;4906407;28;20349;-66
2023/07/15 10:49:41;;;;;;;13.35;3.00;;;;;;;;;;4924835;28;20054;-66
2023/07/15 10:52:07;;;;;;;13.07;2.72;;;;;;;;;;4921354;28;20073;-65
2023/07/15 10:54:36;;;;;;;14.45;2.90;;;;;;;;;;4926372;28;20733;-66
2023/07/15 10:57:12;;;;;;;17.35;2.95;;;;;;;;;;4920882;28;20732;-66
2023/07/15 10:59:40;;;;;;;15.57;2.97;;;;;;;;;;4907574;28;20138;-66
2023/07/15 11:02:06;;;;;;;12.15;3.17;;;;;;;;;;4902080;28;20106;-65
2023/07/15 11:04:33;;;;;;;17.25;3.25;;;;;;;;;;4907958;28;20035;-65
2023/07/15 11:07:07;;;;;;;13.07;3.08;;;;;;;;;;4922719;28;20039;-66
2023/07/15 11:09:37;;;;;;;14.82;3.05;;;;;;;;;;4924722;28;20042;-65
2023/07/15 11:12:06;;;;;;;12.18;3.17;;;;;;;;;;4920662;28;20573;-65
2023/07/15 11:14:33;;;;;;;12.00;3.17;;;;;;;;;;4923348;28;20027;-65
2023/07/15 11:17:01;;;;;;;12.52;3.03;;;;;;;;;;4903522;28;20031;-65
2023/07/15 11:19:28;;;;;;;11.48;2.78;;;;;;;;;;4924275;28;20035;-65
2023/07/15 11:21:59;;;;;;;12.93;3.05;;;;;;;;;;4922131;28;20720;-64
2023/07/15 11:24:26;;;;;;;8.60;2.28;;;;;;;;;;4923120;28;20047;-65
2023/07/15 11:26:53;;;;;;;14.40;2.47;;;;;;;;;;4920117;28;20027;-64
2023/07/15 11:29:23;;;;;;;9.93;2.13;;;;;;;;;;4905511;28;20126;-64
2023/07/15 11:31:50;;;;;;;12.00;2.42;;;;;;;;;;4921917;28;20467;-65
2023/07/15 11:34:17;;;;;;;9.52;2.28;;;;;;;;;;4924898;28;20027;-65
2023/07/15 11:36:44;;;;;;;14.75;2.50;;;;;;;;;;4922225;28;21065;-64
2023/07/15 11:39:11;;;;;;;15.73;2.55;;;;;;;;;;4925950;28;20658;-65
2023/07/15 11:41:38;;;;;;;11.68;2.67;;;;;;;;;;4926591;28;20091;-65
2023/07/15 11:44:07;;;;;;;10.38;2.22;;;;;;;;;;4921049;28;20564;-65
2023/07/15 11:46:34;;;;;;;9.38;2.15;;;;;;;;;;4927492;28;20447;-65
2023/07/15 11:49:00;;;;;;;14.00;2.70;;;;;;;;;;4924437;28;20465;-65
2023/07/15 11:51:26;;;;;;;12.10;2.30;;;;;;;;;;4909787;29;20031;-64
2023/07/15 11:53:54;;;;;;;11.30;2.58;;;;;;;;;;4922078;28;20869;-65
2023/07/15 11:56:38;;;;;;;9.23;2.13;;;;;;;;;;4925670;28;20854;-65
2023/07/15 11:59:09;;;;;;;9.60;2.33;;;;;;;;;;4923396;28;20027;-66
2023/07/15 12:01:37;;;;;;;10.55;2.38;;;;;;;;;;4927013;28;20027;-65
2023/07/15 12:04:11;;;;;;;8.32;2.22;;;;;;;;;;4923967;28;20031;-65
2023/07/15 12:06:45;;;;;;;8.85;2.17;;;;;;;;;;4924534;28;20031;-64
2023/07/15 12:09:12;;;;;;;9.90;2.35;;;;;;;;;;4925562;28;20031;-65
2023/07/15 12:11:38;;;;;;;11.45;2.60;;;;;;;;;;4923294;28;20141;-65
2023/07/15 12:14:05;;;;;;;10.82;2.28;;;;;;;;;;4904739;28;20027;-64
2023/07/15 12:16:33;;;;;;;11.38;2.47;;;;;;;;;;4926253;28;20041;-65
2023/07/15 12:19:00;;;;;;;10.70;2.38;;;;;;;;;;4921252;28;20071;-64
2023/07/15 12:21:27;;;;;;;11.73;2.33;;;;;;;;;;4909437;28;20023;-66
2023/07/15 12:23:53;;;;;;;9.60;2.22;;;;;;;;;;4907466;28;20039;-67
2023/07/15 12:26:19;;;;;;;11.07;2.28;;;;;;;;;;4922658;28;20074;-67
2023/07/15 12:28:46;;;;;;;8.30;2.20;;;;;;;;;;4904850;28;20142;-66
2023/07/15 12:31:13;;;;;;;11.48;2.13;;;;;;;;;;4926910;28;20038;-67
2023/07/15 12:33:39;;;;;;;13.32;2.28;;;;;;;;;;4926115;28;20048;-66
2023/07/15 12:36:06;;;;;;;21.17;2.25;;;;;;;;;;4922786;28;20019;-66
2023/07/15 12:38:32;;;;;;;16.60;2.58;;;;;;;;;;4925255;28;20244;-66
2023/07/15 12:40:58;;;;;;;13.48;2.70;;;;;;;;;;4921999;28;20035;-65
2023/07/15 12:43:25;;;;;;;12.27;2.22;;;;;;;;;;4924863;28;20042;-65
2023/07/15 12:45:52;;;;;;;10.13;2.28;;;;;;;;;;4921143;28;20043;-65
2023/07/15 12:48:18;;;;;;;8.40;2.40;;;;;;;;;;4927815;28;20061;-66
2023/07/15 12:50:44;;;;;;;12.05;2.88;;;;;;;;;;4907009;29;20515;-66
2023/07/15 12:53:11;;;;;;;11.63;2.85;;;;;;;;;;4909561;28;20043;-65
2023/07/15 12:55:37;;;;;;;10.70;2.65;;;;;;;;;;4910394;29;20086;-66
2023/07/15 12:58:03;;;;;;;10.13;2.20;;;;;;;;;;4906889;29;20275;-65
2023/07/15 13:00:29;;;;;;;10.27;2.20;;;;;;;;;;4910123;29;21391;-66
2023/07/15 13:02:55;;;;;;;13.63;2.70;;;;;;;;;;4907895;28;20163;-66
2023/07/15 13:05:22;;;;;;;11.52;2.40;;;;;;;;;;4892254;29;20430;-65
2023/07/15 13:07:48;;;;;;;9.98;2.10;;;;;;;;;;4905401;29;20036;-66
2023/07/15 13:10:14;;;;;;;8.88;2.30;;;;;;;;;;4890158;29;20407;-66
2023/07/15 13:12:40;;;;;;;11.18;2.33;;;;;;;;;;4911077;29;20067;-66
2023/07/15 13:15:07;;;;;;;9.35;2.20;;;;;;;;;;4888597;29;20293;-66
2023/07/15 13:17:33;;;;;;;11.18;2.45;;;;;;;;;;4908692;29;20034;-65
2023/07/15 13:19:59;;;;;;;10.43;2.58;;;;;;;;;;4887872;29;20041;-66
2023/07/15 13:22:25;;;;;;;9.52;2.42;;;;;;;;;;4907639;29;20036;-66
2023/07/15 13:24:51;;;;;;;10.98;2.70;;;;;;;;;;4906446;29;20078;-65
2023/07/15 13:27:18;;;;;;;13.25;2.80;;;;;;;;;;4893827;29;20409;-66
2023/07/15 13:29:44;;;;;;;10.85;2.78;;;;;;;;;;4904847;29;20043;-64
2023/07/15 13:32:10;;;;;;;10.93;2.55;;;;;;;;;;4908517;29;20034;-64
2023/07/15 13:34:37;;;;;;;12.65;2.83;;;;;;;;;;4909064;29;20031;-67
2023/07/15 13:37:03;;;;;;;11.82;2.30;;;;;;;;;;4887405;29;23623;-66
2023/07/15 13:39:34;;;;;;;13.73;2.90;;;;;;;;;;4890502;29;20023;-67
2023/07/15 13:42:00;;;;;;;12.90;2.83;;;;;;;;;;4888416;29;20116;-65
2023/07/15 13:44:26;;;;;;;14.45;2.90;;;;;;;;;;4909410;29;20291;-67
2023/07/15 13:46:52;;;;;;;12.93;2.65;;;;;;;;;;4903083;29;20028;-66
2023/07/15 13:49:18;;;;;;;11.05;2.60;;;;;;;;;;4897576;28;20054;-65
2023/07/15 13:51:44;;;;;;;12.95;2.63;;;;;;;;;;4923383;28;20283;-66
2023/07/15 13:54:11;;;;;;;13.70;2.65;;;;;;;;;;4928003;28;20142;-66
2023/07/15 13:56:37;;;;;;;12.32;3.17;;;;;;;;;;4908700;28;20294;-68
2023/07/15 13:59:03;;;;;;;13.68;2.60;;;;;;;;;;4924454;28;21687;-66
2023/07/15 14:01:29;;;;;;;11.93;2.60;;;;;;;;;;4927189;28;20102;-66
2023/07/15 14:03:55;;;;;;;9.20;2.22;;;;;;;;;;4904078;28;20130;-67
2023/07/15 14:06:21;;;;;;;9.68;2.05;;;;;;;;;;4924399;28;20035;-67
2023/07/15 14:08:47;;;;;;;10.82;2.53;;;;;;;;;;4924914;28;20103;-66
2023/07/15 14:11:13;;;;;;;11.70;2.40;;;;;;;;;;4926697;28;20156;-66
2023/07/15 14:13:40;;;;;;;10.48;2.40;;;;;;;;;;4927554;28;20051;-66
2023/07/15 14:16:06;;;;;;;10.07;2.42;;;;;;;;;;4907396;28;20118;-66
2023/07/15 14:18:32;;;;;;;10.57;2.20;;;;;;;;;;4908962;28;20106;-67
2023/07/15 14:20:58;;;;;;;9.35;2.10;;;;;;;;;;4924286;28;20031;-68
2023/07/15 14:23:24;;;;;;;9.18;2.40;;;;;;;;;;4910405;28;20035;-67
2023/07/15 14:25:50;;;;;;;12.18;2.50;;;;;;;;;;4907481;28;20030;-67
2023/07/15 14:28:16;;;;;;;11.85;2.50;;;;;;;;;;4910070;28;20562;-67
2023/07/15 14:30:43;;;;;;;11.52;2.47;;;;;;;;;;4908481;28;20105;-68
2023/07/15 14:33:09;;;;;;;11.52;2.40;;;;;;;;;;4907603;28;20328;-67
2023/07/15 14:35:36;;;;;;;10.65;2.40;;;;;;;;;;4927037;28;20058;-67
2023/07/15 14:38:02;;;;;;;11.30;2.25;;;;;;;;;;4905112;28;20038;-67